sensor_id;sensor_type;location;lat;lon;timestamp;temperature;humidity
25983;DHT22;13773;48.868;10.730;2023-08-17T00:02:15;19.80;99.90
25983;DHT22;13773;48.868;10.730;2023-08-17T00:04:41;19.80;99.90
25983;DHT22;13773;48.868;10.730;2023-08-17T00:07:06;19.80;99.90
25983;DHT22;13773;48.868;10.730;2023-08-17T00:09:33;19.80;99.90
25983;DHT22;13773;48.868;10.730;2023-08-17T00:11:58;19.70;99.90
25983;DHT22;13773;48.868;10.730;2023-08-17T00:14:24;19.70;99.90
25983;DHT22;13773;48.868;10.730;2023-08-17T00:16:50;19.70;99.90
25983;DHT22;13773;48.868;10.730;2023-08-17T00:19:16;19.60;99.90
25983;DHT22;13773;48.868;10.730;2023-08-17T00:21:43;19.60;99.90
25983;DHT22;13773;48.868;10.730;2023-08-17T00:24:09;19.60;99.90
25983;DHT22;13773;48.868;10.730;2023-08-17T00:26:35;19.60;99.90
25983;DHT22;13773;48.868;10.730;2023-08-17T00:29:01;19.50;99.90
25983;DHT22;13773;48.868;10.730;2023-08-17T00:31:27;19.50;99.90
25983;DHT22;13773;48.868;10.730;2023-08-17T00:33:52;19.60;99.90
25983;DHT22;13773;48.868;10.730;2023-08-17T00:36:18;19.60;99.90
25983;DHT22;13773;48.868;10.730;2023-08-17T00:38:44;19.70;99.90
25983;DHT22;13773;48.868;10.730;2023-08-17T00:41:09;19.70;99.90
25983;DHT22;13773;48.868;10.730;2023-08-17T00:43:35;19.80;99.90
25983;DHT22;13773;48.868;10.730;2023-08-17T00:46:01;19.80;99.90
25983;DHT22;13773;48.868;10.730;2023-08-17T00:48:27;19.90;99.90
25983;DHT22;13773;48.868;10.730;2023-08-17T00:50:55;19.90;99.90
25983;DHT22;13773;48.868;10.730;2023-08-17T00:53:23;20.80;99.90
25983;DHT22;13773;48.868;10.730;2023-08-17T00:55:50;20.00;99.90
25983;DHT22;13773;48.868;10.730;2023-08-17T00:58:16;20.00;99.90
25983;DHT22;13773;48.868;10.730;2023-08-17T01:00:42;20.00;99.90
25983;DHT22;13773;48.868;10.730;2023-08-17T01:03:07;20.00;99.90
25983;DHT22;13773;48.868;10.730;2023-08-17T01:05:34;20.10;99.90
25983;DHT22;13773;48.868;10.730;2023-08-17T01:08:00;20.20;99.90
25983;DHT22;13773;48.868;10.730;2023-08-17T01:10:41;20.30;99.90
25983;DHT22;13773;48.868;10.730;2023-08-17T01:13:15;20.40;99.90
25983;DHT22;13773;48.868;10.730;2023-08-17T01:15:49;20.40;99.90
25983;DHT22;13773;48.868;10.730;2023-08-17T01:18:29;20.50;99.90
25983;DHT22;13773;48.868;10.730;2023-08-17T01:20:57;20.50;99.90
25983;DHT22;13773;48.868;10.730;2023-08-17T01:23:23;20.50;99.90
25983;DHT22;13773;48.868;10.730;2023-08-17T01:25:49;20.60;99.90
25983;DHT22;13773;48.868;10.730;2023-08-17T01:28:15;20.60;99.90
25983;DHT22;13773;48.868;10.730;2023-08-17T01:30:58;20.70;99.90
25983;DHT22;13773;48.868;10.730;2023-08-17T01:33:40;20.80;99.90
25983;DHT22;13773;48.868;10.730;2023-08-17T01:38:48;20.70;99.90
25983;DHT22;13773;48.868;10.730;2023-08-17T01:41:15;20.60;99.90
25983;DHT22;13773;48.868;10.730;2023-08-17T01:43:43;20.70;99.90
25983;DHT22;13773;48.868;10.730;2023-08-17T01:46:16;20.50;99.90
25983;DHT22;13773;48.868;10.730;2023-08-17T01:48:46;20.40;99.90
25983;DHT22;13773;48.868;10.730;2023-08-17T01:51:18;20.30;99.90
25983;DHT22;13773;48.868;10.730;2023-08-17T01:53:46;20.20;99.90
25983;DHT22;13773;48.868;10.730;2023-08-17T01:56:12;20.10;99.90
25983;DHT22;13773;48.868;10.730;2023-08-17T01:58:38;20.10;99.90
25983;DHT22;13773;48.868;10.730;2023-08-17T02:01:04;20.00;99.90
25983;DHT22;13773;48.868;10.730;2023-08-17T02:03:29;19.90;99.90
25983;DHT22;13773;48.868;10.730;2023-08-17T02:05:59;19.90;99.90
25983;DHT22;13773;48.868;10.730;2023-08-17T02:08:25;19.80;99.90
25983;DHT22;13773;48.868;10.730;2023-08-17T02:10:51;19.60;99.90
25983;DHT22;13773;48.868;10.730;2023-08-17T02:13:17;19.60;99.90
25983;DHT22;13773;48.868;10.730;2023-08-17T02:15:43;19.50;99.90
25983;DHT22;13773;48.868;10.730;2023-08-17T02:18:09;19.50;99.90
25983;DHT22;13773;48.868;10.730;2023-08-17T02:20:34;19.50;99.90
25983;DHT22;13773;48.868;10.730;2023-08-17T02:23:01;19.50;99.90
25983;DHT22;13773;48.868;10.730;2023-08-17T02:25:27;19.40;99.90
25983;DHT22;13773;48.868;10.730;2023-08-17T02:27:59;19.30;99.90
25983;DHT22;13773;48.868;10.730;2023-08-17T02:30:25;19.00;99.90
25983;DHT22;13773;48.868;10.730;2023-08-17T02:32:51;19.00;99.90
25983;DHT22;13773;48.868;10.730;2023-08-17T02:35:18;19.00;99.90
25983;DHT22;13773;48.868;10.730;2023-08-17T02:37:43;19.00;99.90
25983;DHT22;13773;48.868;10.730;2023-08-17T02:40:09;18.90;99.90
25983;DHT22;13773;48.868;10.730;2023-08-17T02:42:35;18.90;99.90
25983;DHT22;13773;48.868;10.730;2023-08-17T02:45:01;18.90;99.90
25983;DHT22;13773;48.868;10.730;2023-08-17T02:47:27;18.90;99.90
25983;DHT22;13773;48.868;10.730;2023-08-17T02:49:52;18.80;99.90
25983;DHT22;13773;48.868;10.730;2023-08-17T02:52:18;18.70;99.90
25983;DHT22;13773;48.868;10.730;2023-08-17T02:54:44;18.80;99.90
25983;DHT22;13773;48.868;10.730;2023-08-17T02:57:13;18.70;99.90
25983;DHT22;13773;48.868;10.730;2023-08-17T02:59:38;18.70;99.90
25983;DHT22;13773;48.868;10.730;2023-08-17T03:02:04;18.70;99.90
25983;DHT22;13773;48.868;10.730;2023-08-17T03:04:30;18.70;99.90
25983;DHT22;13773;48.868;10.730;2023-08-17T03:06:56;18.70;99.90
25983;DHT22;13773;48.868;10.730;2023-08-17T03:09:21;18.70;99.90
25983;DHT22;13773;48.868;10.730;2023-08-17T03:11:47;18.70;99.90
25983;DHT22;13773;48.868;10.730;2023-08-17T03:14:13;18.70;99.90
25983;DHT22;13773;48.868;10.730;2023-08-17T03:16:38;18.70;99.90
25983;DHT22;13773;48.868;10.730;2023-08-17T03:19:04;18.70;99.90
25983;DHT22;13773;48.868;10.730;2023-08-17T03:21:30;18.70;99.90
25983;DHT22;13773;48.868;10.730;2023-08-17T03:23:56;18.60;99.90
25983;DHT22;13773;48.868;10.730;2023-08-17T03:26:21;18.60;99.90
25983;DHT22;13773;48.868;10.730;2023-08-17T03:28:47;18.50;99.90
25983;DHT22;13773;48.868;10.730;2023-08-17T03:31:13;18.40;99.90
25983;DHT22;13773;48.868;10.730;2023-08-17T03:33:38;18.40;99.90
25983;DHT22;13773;48.868;10.730;2023-08-17T03:36:06;18.30;99.90
25983;DHT22;13773;48.868;10.730;2023-08-17T03:38:32;18.30;99.90
25983;DHT22;13773;48.868;10.730;2023-08-17T03:40:57;18.20;99.90
25983;DHT22;13773;48.868;10.730;2023-08-17T03:43:23;18.20;99.90
25983;DHT22;13773;48.868;10.730;2023-08-17T03:45:49;18.20;99.90
25983;DHT22;13773;48.868;10.730;2023-08-17T03:48:15;18.20;99.90
25983;DHT22;13773;48.868;10.730;2023-08-17T03:50:40;18.10;99.90
25983;DHT22;13773;48.868;10.730;2023-08-17T03:53:06;18.30;99.90
25983;DHT22;13773;48.868;10.730;2023-08-17T03:55:32;18.50;99.90
25983;DHT22;13773;48.868;10.730;2023-08-17T03:57:57;18.80;99.90
25983;DHT22;13773;48.868;10.730;2023-08-17T04:00:23;20.50;99.90
25983;DHT22;13773;48.868;10.730;2023-08-17T04:02:49;19.20;99.90
25983;DHT22;13773;48.868;10.730;2023-08-17T04:05:15;19.40;99.90
25983;DHT22;13773;48.868;10.730;2023-08-17T04:07:40;19.40;99.90
25983;DHT22;13773;48.868;10.730;2023-08-17T04:10:06;19.10;99.90
25983;DHT22;13773;48.868;10.730;2023-08-17T04:12:32;19.40;99.90
25983;DHT22;13773;48.868;10.730;2023-08-17T04:14:58;19.50;99.90
25983;DHT22;13773;48.868;10.730;2023-08-17T04:17:24;19.30;99.90
25983;DHT22;13773;48.868;10.730;2023-08-17T04:19:50;19.10;99.90
25983;DHT22;13773;48.868;10.730;2023-08-17T04:22:16;19.20;99.90
25983;DHT22;13773;48.868;10.730;2023-08-17T04:24:42;19.20;99.90
25983;DHT22;13773;48.868;10.730;2023-08-17T04:27:08;19.00;99.90
25983;DHT22;13773;48.868;10.730;2023-08-17T04:29:33;18.80;99.90
25983;DHT22;13773;48.868;10.730;2023-08-17T04:31:59;18.70;99.90
25983;DHT22;13773;48.868;10.730;2023-08-17T04:34:25;18.60;99.90
25983;DHT22;13773;48.868;10.730;2023-08-17T04:36:51;18.50;99.90
25983;DHT22;13773;48.868;10.730;2023-08-17T04:39:16;18.40;99.90
25983;DHT22;13773;48.868;10.730;2023-08-17T04:41:43;18.30;99.90
25983;DHT22;13773;48.868;10.730;2023-08-17T04:44:08;18.30;99.90
25983;DHT22;13773;48.868;10.730;2023-08-17T04:46:35;18.20;99.90
25983;DHT22;13773;48.868;10.730;2023-08-17T04:49:01;18.20;99.90
25983;DHT22;13773;48.868;10.730;2023-08-17T04:51:27;18.20;99.90
25983;DHT22;13773;48.868;10.730;2023-08-17T04:53:52;18.20;99.90
25983;DHT22;13773;48.868;10.730;2023-08-17T04:56:18;18.20;99.90
25983;DHT22;13773;48.868;10.730;2023-08-17T04:58:44;18.30;99.90
25983;DHT22;13773;48.868;10.730;2023-08-17T05:01:10;18.30;99.90
25983;DHT22;13773;48.868;10.730;2023-08-17T05:03:35;18.20;99.90
25983;DHT22;13773;48.868;10.730;2023-08-17T05:06:01;18.20;99.90
25983;DHT22;13773;48.868;10.730;2023-08-17T05:08:27;18.20;99.90
25983;DHT22;13773;48.868;10.730;2023-08-17T05:10:53;18.40;99.90
25983;DHT22;13773;48.868;10.730;2023-08-17T05:13:19;17.10;99.90
25983;DHT22;13773;48.868;10.730;2023-08-17T05:15:45;18.40;99.90
25983;DHT22;13773;48.868;10.730;2023-08-17T05:18:10;18.50;99.90
25983;DHT22;13773;48.868;10.730;2023-08-17T05:20:36;18.50;99.90
25983;DHT22;13773;48.868;10.730;2023-08-17T05:23:02;18.50;99.90
25983;DHT22;13773;48.868;10.730;2023-08-17T05:25:28;18.60;99.90
25983;DHT22;13773;48.868;10.730;2023-08-17T05:27:55;18.70;99.90
25983;DHT22;13773;48.868;10.730;2023-08-17T05:30:20;18.80;99.90
25983;DHT22;13773;48.868;10.730;2023-08-17T05:32:46;18.80;99.90
25983;DHT22;13773;48.868;10.730;2023-08-17T05:35:12;18.90;99.90
25983;DHT22;13773;48.868;10.730;2023-08-17T05:37:38;19.00;99.90
25983;DHT22;13773;48.868;10.730;2023-08-17T05:40:04;19.00;99.90
25983;DHT22;13773;48.868;10.730;2023-08-17T05:42:30;19.10;99.90
25983;DHT22;13773;48.868;10.730;2023-08-17T05:44:56;19.10;99.90
25983;DHT22;13773;48.868;10.730;2023-08-17T05:47:22;19.20;99.90
25983;DHT22;13773;48.868;10.730;2023-08-17T05:49:47;19.30;99.90
25983;DHT22;13773;48.868;10.730;2023-08-17T05:52:13;19.30;99.90
25983;DHT22;13773;48.868;10.730;2023-08-17T05:54:39;19.40;99.90
25983;DHT22;13773;48.868;10.730;2023-08-17T05:57:05;19.40;99.90
25983;DHT22;13773;48.868;10.730;2023-08-17T05:59:30;19.50;99.90
25983;DHT22;13773;48.868;10.730;2023-08-17T06:01:56;19.50;99.90
25983;DHT22;13773;48.868;10.730;2023-08-17T06:04:22;19.60;99.90
25983;DHT22;13773;48.868;10.730;2023-08-17T06:06:48;19.60;99.90
25983;DHT22;13773;48.868;10.730;2023-08-17T06:09:13;19.60;99.90
25983;DHT22;13773;48.868;10.730;2023-08-17T06:11:40;19.60;99.90
25983;DHT22;13773;48.868;10.730;2023-08-17T06:14:06;19.60;99.90
25983;DHT22;13773;48.868;10.730;2023-08-17T06:16:32;19.60;99.90
25983;DHT22;13773;48.868;10.730;2023-08-17T06:18:58;19.60;99.90
25983;DHT22;13773;48.868;10.730;2023-08-17T06:21:24;19.80;99.90
25983;DHT22;13773;48.868;10.730;2023-08-17T06:23:50;20.30;99.90
25983;DHT22;13773;48.868;10.730;2023-08-17T06:26:15;20.70;99.90
25983;DHT22;13773;48.868;10.730;2023-08-17T06:28:41;20.80;99.90
25983;DHT22;13773;48.868;10.730;2023-08-17T06:31:07;20.60;99.90
25983;DHT22;13773;48.868;10.730;2023-08-17T06:33:33;20.80;99.90
25983;DHT22;13773;48.868;10.730;2023-08-17T06:35:58;20.70;99.90
25983;DHT22;13773;48.868;10.730;2023-08-17T06:38:24;21.10;99.90
25983;DHT22;13773;48.868;10.730;2023-08-17T06:40:51;21.30;99.90
25983;DHT22;13773;48.868;10.730;2023-08-17T06:43:18;21.60;99.90
25983;DHT22;13773;48.868;10.730;2023-08-17T06:45:44;22.10;99.90
25983;DHT22;13773;48.868;10.730;2023-08-17T06:48:10;23.60;99.90
25983;DHT22;13773;48.868;10.730;2023-08-17T06:50:35;23.10;99.90
25983;DHT22;13773;48.868;10.730;2023-08-17T06:53:02;23.70;99.90
25983;DHT22;13773;48.868;10.730;2023-08-17T06:55:27;24.40;99.90
25983;DHT22;13773;48.868;10.730;2023-08-17T06:57:53;24.70;99.90
25983;DHT22;13773;48.868;10.730;2023-08-17T07:00:20;24.30;99.90
25983;DHT22;13773;48.868;10.730;2023-08-17T07:02:47;24.50;99.90
25983;DHT22;13773;48.868;10.730;2023-08-17T07:05:15;25.10;99.90
25983;DHT22;13773;48.868;10.730;2023-08-17T07:07:41;25.20;99.90
25983;DHT22;13773;48.868;10.730;2023-08-17T07:10:08;22.80;99.90
25983;DHT22;13773;48.868;10.730;2023-08-17T07:12:34;25.00;99.90
25983;DHT22;13773;48.868;10.730;2023-08-17T07:15:00;25.10;99.90
25983;DHT22;13773;48.868;10.730;2023-08-17T07:17:25;25.20;99.90
25983;DHT22;13773;48.868;10.730;2023-08-17T07:19:51;25.20;99.90
25983;DHT22;13773;48.868;10.730;2023-08-17T07:22:17;25.10;99.90
25983;DHT22;13773;48.868;10.730;2023-08-17T07:24:43;25.10;99.90
25983;DHT22;13773;48.868;10.730;2023-08-17T07:27:08;24.90;99.90
25983;DHT22;13773;48.868;10.730;2023-08-17T07:29:34;24.90;99.90
25983;DHT22;13773;48.868;10.730;2023-08-17T07:32:00;24.90;99.90
25983;DHT22;13773;48.868;10.730;2023-08-17T07:34:30;25.10;99.90
25983;DHT22;13773;48.868;10.730;2023-08-17T07:36:57;25.00;99.90
25983;DHT22;13773;48.868;10.730;2023-08-17T07:39:23;25.10;99.90
25983;DHT22;13773;48.868;10.730;2023-08-17T07:41:49;25.10;99.90
25983;DHT22;13773;48.868;10.730;2023-08-17T07:44:15;25.10;99.90
25983;DHT22;13773;48.868;10.730;2023-08-17T07:46:41;24.90;99.90
25983;DHT22;13773;48.868;10.730;2023-08-17T07:49:06;24.80;99.90
25983;DHT22;13773;48.868;10.730;2023-08-17T07:51:32;24.90;99.90
25983;DHT22;13773;48.868;10.730;2023-08-17T07:54:02;25.00;99.90
25983;DHT22;13773;48.868;10.730;2023-08-17T07:56:28;25.10;99.90
25983;DHT22;13773;48.868;10.730;2023-08-17T07:58:54;25.20;99.90
25983;DHT22;13773;48.868;10.730;2023-08-17T08:01:20;25.30;99.90
25983;DHT22;13773;48.868;10.730;2023-08-17T08:03:46;25.30;99.90
25983;DHT22;13773;48.868;10.730;2023-08-17T08:06:12;27.40;99.90
25983;DHT22;13773;48.868;10.730;2023-08-17T08:08:38;25.30;99.90
25983;DHT22;13773;48.868;10.730;2023-08-17T08:11:04;25.20;99.90
25983;DHT22;13773;48.868;10.730;2023-08-17T08:13:30;25.10;99.90
25983;DHT22;13773;48.868;10.730;2023-08-17T08:15:57;25.10;99.90
25983;DHT22;13773;48.868;10.730;2023-08-17T08:18:23;25.20;99.90
25983;DHT22;13773;48.868;10.730;2023-08-17T08:20:49;25.30;99.90
25983;DHT22;13773;48.868;10.730;2023-08-17T08:23:15;25.40;99.90
25983;DHT22;13773;48.868;10.730;2023-08-17T08:25:43;25.50;99.90
25983;DHT22;13773;48.868;10.730;2023-08-17T08:28:09;25.60;99.90
25983;DHT22;13773;48.868;10.730;2023-08-17T08:30:35;25.70;99.90
25983;DHT22;13773;48.868;10.730;2023-08-17T08:33:01;25.60;99.90
25983;DHT22;13773;48.868;10.730;2023-08-17T08:35:28;25.70;99.90
25983;DHT22;13773;48.868;10.730;2023-08-17T08:37:53;25.90;99.90
25983;DHT22;13773;48.868;10.730;2023-08-17T08:40:29;26.20;99.90
25983;DHT22;13773;48.868;10.730;2023-08-17T08:42:59;26.20;99.90
25983;DHT22;13773;48.868;10.730;2023-08-17T08:45:25;26.20;99.90
25983;DHT22;13773;48.868;10.730;2023-08-17T08:47:53;26.10;99.90
25983;DHT22;13773;48.868;10.730;2023-08-17T08:50:20;26.10;99.90
25983;DHT22;13773;48.868;10.730;2023-08-17T08:53:00;26.10;99.90
25983;DHT22;13773;48.868;10.730;2023-08-17T08:55:37;26.30;99.90
25983;DHT22;13773;48.868;10.730;2023-08-17T08:58:05;26.60;99.90
25983;DHT22;13773;48.868;10.730;2023-08-17T09:00:33;26.40;99.90
25983;DHT22;13773;48.868;10.730;2023-08-17T09:03:04;26.30;99.90
25983;DHT22;13773;48.868;10.730;2023-08-17T09:05:31;26.40;99.90
25983;DHT22;13773;48.868;10.730;2023-08-17T09:08:00;26.40;99.90
25983;DHT22;13773;48.868;10.730;2023-08-17T09:10:28;26.60;99.90
25983;DHT22;13773;48.868;10.730;2023-08-17T09:12:54;26.80;99.90
25983;DHT22;13773;48.868;10.730;2023-08-17T09:15:19;26.80;99.90
25983;DHT22;13773;48.868;10.730;2023-08-17T09:17:45;26.50;99.90
25983;DHT22;13773;48.868;10.730;2023-08-17T09:20:39;26.60;99.90
25983;DHT22;13773;48.868;10.730;2023-08-17T09:23:16;26.80;99.90
25983;DHT22;13773;48.868;10.730;2023-08-17T09:25:43;27.00;99.90
25983;DHT22;13773;48.868;10.730;2023-08-17T09:28:11;27.30;99.90
25983;DHT22;13773;48.868;10.730;2023-08-17T09:33:23;27.30;99.90
25983;DHT22;13773;48.868;10.730;2023-08-17T09:35:50;27.40;99.90
25983;DHT22;13773;48.868;10.730;2023-08-17T09:38:16;27.40;99.90
25983;DHT22;13773;48.868;10.730;2023-08-17T09:40:42;27.40;99.90
25983;DHT22;13773;48.868;10.730;2023-08-17T09:43:09;27.60;99.90
25983;DHT22;13773;48.868;10.730;2023-08-17T09:45:39;27.50;99.90
25983;DHT22;13773;48.868;10.730;2023-08-17T09:48:08;27.40;99.90
25983;DHT22;13773;48.868;10.730;2023-08-17T09:50:34;27.30;99.90
25983;DHT22;13773;48.868;10.730;2023-08-17T09:53:04;27.50;99.90
25983;DHT22;13773;48.868;10.730;2023-08-17T09:55:31;27.50;99.90
25983;DHT22;13773;48.868;10.730;2023-08-17T09:58:00;27.30;99.90
25983;DHT22;13773;48.868;10.730;2023-08-17T10:00:27;27.50;99.90
25983;DHT22;13773;48.868;10.730;2023-08-17T10:02:53;27.50;99.90
25983;DHT22;13773;48.868;10.730;2023-08-17T10:05:20;27.60;99.90
25983;DHT22;13773;48.868;10.730;2023-08-17T10:07:57;27.90;99.90
25983;DHT22;13773;48.868;10.730;2023-08-17T10:10:25;27.80;99.90
25983;DHT22;13773;48.868;10.730;2023-08-17T10:13:07;27.80;99.90
25983;DHT22;13773;48.868;10.730;2023-08-17T10:15:37;28.10;99.90
25983;DHT22;13773;48.868;10.730;2023-08-17T10:18:22;28.20;99.90
25983;DHT22;13773;48.868;10.730;2023-08-17T10:21:02;28.30;99.90
25983;DHT22;13773;48.868;10.730;2023-08-17T10:23:31;28.10;99.90
25983;DHT22;13773;48.868;10.730;2023-08-17T10:25:57;28.20;99.90
25983;DHT22;13773;48.868;10.730;2023-08-17T10:28:25;28.50;99.90
25983;DHT22;13773;48.868;10.730;2023-08-17T10:30:51;28.50;99.90
25983;DHT22;13773;48.868;10.730;2023-08-17T10:33:18;28.70;99.90
25983;DHT22;13773;48.868;10.730;2023-08-17T10:35:44;28.90;99.90
25983;DHT22;13773;48.868;10.730;2023-08-17T10:38:11;28.70;99.90
25983;DHT22;13773;48.868;10.730;2023-08-17T10:40:41;28.60;99.90
25983;DHT22;13773;48.868;10.730;2023-08-17T10:43:07;28.70;99.90
25983;DHT22;13773;48.868;10.730;2023-08-17T10:45:34;28.70;99.90
25983;DHT22;13773;48.868;10.730;2023-08-17T10:50:35;28.60;99.90
25983;DHT22;13773;48.868;10.730;2023-08-17T10:53:08;29.00;99.90
25983;DHT22;13773;48.868;10.730;2023-08-17T10:55:42;28.90;99.90
25983;DHT22;13773;48.868;10.730;2023-08-17T10:58:09;29.20;99.90
25983;DHT22;13773;48.868;10.730;2023-08-17T11:00:40;29.40;99.90
25983;DHT22;13773;48.868;10.730;2023-08-17T11:03:09;29.20;99.90
25983;DHT22;13773;48.868;10.730;2023-08-17T11:05:48;29.30;99.90
25983;DHT22;13773;48.868;10.730;2023-08-17T11:08:32;29.20;99.90
25983;DHT22;13773;48.868;10.730;2023-08-17T11:11:06;29.10;99.90
25983;DHT22;13773;48.868;10.730;2023-08-17T11:13:42;29.20;99.90
25983;DHT22;13773;48.868;10.730;2023-08-17T11:16:10;29.20;99.90
25983;DHT22;13773;48.868;10.730;2023-08-17T11:18:36;29.30;99.90
25983;DHT22;13773;48.868;10.730;2023-08-17T11:21:03;29.30;99.90
25983;DHT22;13773;48.868;10.730;2023-08-17T11:23:30;29.70;99.90
25983;DHT22;13773;48.868;10.730;2023-08-17T11:25:56;29.90;99.90
25983;DHT22;13773;48.868;10.730;2023-08-17T11:28:23;32.90;99.90
25983;DHT22;13773;48.868;10.730;2023-08-17T11:31:02;29.80;99.90
25983;DHT22;13773;48.868;10.730;2023-08-17T11:33:30;30.10;99.90
25983;DHT22;13773;48.868;10.730;2023-08-17T11:35:59;30.20;99.90
25983;DHT22;13773;48.868;10.730;2023-08-17T11:38:27;30.20;99.90
25983;DHT22;13773;48.868;10.730;2023-08-17T11:40:57;30.50;99.90
25983;DHT22;13773;48.868;10.730;2023-08-17T11:43:23;30.50;99.90
25983;DHT22;13773;48.868;10.730;2023-08-17T11:45:49;30.60;99.90
25983;DHT22;13773;48.868;10.730;2023-08-17T11:48:14;30.10;99.90
25983;DHT22;13773;48.868;10.730;2023-08-17T11:50:42;30.30;99.90
25983;DHT22;13773;48.868;10.730;2023-08-17T11:53:08;30.40;99.90
25983;DHT22;13773;48.868;10.730;2023-08-17T11:55:34;30.50;99.90
25983;DHT22;13773;48.868;10.730;2023-08-17T11:58:02;30.60;99.90
25983;DHT22;13773;48.868;10.730;2023-08-17T12:00:35;30.70;99.90
25983;DHT22;13773;48.868;10.730;2023-08-17T12:03:03;30.70;99.90
25983;DHT22;13773;48.868;10.730;2023-08-17T12:05:31;30.80;99.90
25983;DHT22;13773;48.868;10.730;2023-08-17T12:07:59;30.80;99.90
25983;DHT22;13773;48.868;10.730;2023-08-17T12:10:28;30.80;99.90
25983;DHT22;13773;48.868;10.730;2023-08-17T12:12:56;30.80;99.90
25983;DHT22;13773;48.868;10.730;2023-08-17T12:15:22;30.90;99.90
25983;DHT22;13773;48.868;10.730;2023-08-17T12:17:49;30.80;99.90
25983;DHT22;13773;48.868;10.730;2023-08-17T12:20:19;30.90;99.90
25983;DHT22;13773;48.868;10.730;2023-08-17T12:22:46;30.70;99.90
25983;DHT22;13773;48.868;10.730;2023-08-17T12:25:12;30.90;99.90
25983;DHT22;13773;48.868;10.730;2023-08-17T12:27:38;30.10;99.90
25983;DHT22;13773;48.868;10.730;2023-08-17T12:30:11;29.60;99.90
25983;DHT22;13773;48.868;10.730;2023-08-17T12:32:37;29.60;99.90
25983;DHT22;13773;48.868;10.730;2023-08-17T12:35:03;30.10;99.90
25983;DHT22;13773;48.868;10.730;2023-08-17T12:37:29;30.40;99.90
25983;DHT22;13773;48.868;10.730;2023-08-17T12:39:55;30.80;99.90
25983;DHT22;13773;48.868;10.730;2023-08-17T12:42:21;31.00;99.90
25983;DHT22;13773;48.868;10.730;2023-08-17T12:44:47;31.20;99.90
25983;DHT22;13773;48.868;10.730;2023-08-17T12:47:12;31.40;99.90
25983;DHT22;13773;48.868;10.730;2023-08-17T12:49:38;31.50;99.90
25983;DHT22;13773;48.868;10.730;2023-08-17T12:52:04;31.70;99.90
25983;DHT22;13773;48.868;10.730;2023-08-17T12:54:30;31.80;99.90
25983;DHT22;13773;48.868;10.730;2023-08-17T12:56:55;31.40;99.90
25983;DHT22;13773;48.868;10.730;2023-08-17T12:59:21;31.30;99.90
25983;DHT22;13773;48.868;10.730;2023-08-17T13:01:47;31.50;99.90
25983;DHT22;13773;48.868;10.730;2023-08-17T13:04:13;31.40;99.90
25983;DHT22;13773;48.868;10.730;2023-08-17T13:06:38;31.30;99.90
25983;DHT22;13773;48.868;10.730;2023-08-17T13:09:05;30.50;99.90
25983;DHT22;13773;48.868;10.730;2023-08-17T13:11:31;30.50;99.90
25983;DHT22;13773;48.868;10.730;2023-08-17T13:13:57;31.00;99.90
25983;DHT22;13773;48.868;10.730;2023-08-17T13:16:23;31.40;99.90
25983;DHT22;13773;48.868;10.730;2023-08-17T13:18:49;31.50;99.90
25983;DHT22;13773;48.868;10.730;2023-08-17T13:21:14;31.50;99.90
25983;DHT22;13773;48.868;10.730;2023-08-17T13:23:41;31.70;99.90
25983;DHT22;13773;48.868;10.730;2023-08-17T13:26:07;32.00;99.90
25983;DHT22;13773;48.868;10.730;2023-08-17T13:28:33;32.00;99.90
25983;DHT22;13773;48.868;10.730;2023-08-17T13:30:58;32.00;99.90
25983;DHT22;13773;48.868;10.730;2023-08-17T13:33:24;31.50;99.90
25983;DHT22;13773;48.868;10.730;2023-08-17T13:35:50;31.50;99.90
25983;DHT22;13773;48.868;10.730;2023-08-17T13:38:16;31.40;99.90
25983;DHT22;13773;48.868;10.730;2023-08-17T13:40:42;31.20;99.90
25983;DHT22;13773;48.868;10.730;2023-08-17T13:43:08;31.20;99.90
25983;DHT22;13773;48.868;10.730;2023-08-17T13:45:41;30.70;99.90
25983;DHT22;13773;48.868;10.730;2023-08-17T13:48:07;30.60;99.90
25983;DHT22;13773;48.868;10.730;2023-08-17T13:50:36;30.80;99.90
25983;DHT22;13773;48.868;10.730;2023-08-17T13:53:02;30.70;99.90
25983;DHT22;13773;48.868;10.730;2023-08-17T13:55:28;30.90;99.90
25983;DHT22;13773;48.868;10.730;2023-08-17T13:57:55;30.90;99.90
25983;DHT22;13773;48.868;10.730;2023-08-17T14:00:27;30.90;99.90
25983;DHT22;13773;48.868;10.730;2023-08-17T14:02:53;30.50;99.90
25983;DHT22;13773;48.868;10.730;2023-08-17T14:05:19;29.90;99.90
25983;DHT22;13773;48.868;10.730;2023-08-17T14:07:45;30.00;99.90
25983;DHT22;13773;48.868;10.730;2023-08-17T14:10:11;30.10;99.90
25983;DHT22;13773;48.868;10.730;2023-08-17T14:12:36;30.10;99.90
25983;DHT22;13773;48.868;10.730;2023-08-17T14:15:02;30.00;99.90
25983;DHT22;13773;48.868;10.730;2023-08-17T14:17:35;29.60;99.90
25983;DHT22;13773;48.868;10.730;2023-08-17T14:20:01;29.00;99.90
25983;DHT22;13773;48.868;10.730;2023-08-17T14:22:27;28.50;99.90
25983;DHT22;13773;48.868;10.730;2023-08-17T14:24:53;27.80;99.90
25983;DHT22;13773;48.868;10.730;2023-08-17T14:27:19;27.50;99.90
25983;DHT22;13773;48.868;10.730;2023-08-17T14:29:45;27.30;99.90
25983;DHT22;13773;48.868;10.730;2023-08-17T14:32:10;27.00;99.90
25983;DHT22;13773;48.868;10.730;2023-08-17T14:34:36;26.80;99.90
25983;DHT22;13773;48.868;10.730;2023-08-17T14:37:02;26.60;99.90
25983;DHT22;13773;48.868;10.730;2023-08-17T14:39:27;26.40;99.90
25983;DHT22;13773;48.868;10.730;2023-08-17T14:41:53;26.30;99.90
25983;DHT22;13773;48.868;10.730;2023-08-17T14:44:19;26.30;99.90
25983;DHT22;13773;48.868;10.730;2023-08-17T14:46:45;26.30;99.90
25983;DHT22;13773;48.868;10.730;2023-08-17T14:49:10;26.50;99.90
25983;DHT22;13773;48.868;10.730;2023-08-17T14:51:40;26.50;99.90
25983;DHT22;13773;48.868;10.730;2023-08-17T14:54:06;26.20;99.90
25983;DHT22;13773;48.868;10.730;2023-08-17T14:56:33;25.40;99.90
25983;DHT22;13773;48.868;10.730;2023-08-17T14:58:59;24.90;99.90
25983;DHT22;13773;48.868;10.730;2023-08-17T15:01:25;24.30;99.90
25983;DHT22;13773;48.868;10.730;2023-08-17T15:03:50;23.90;99.90
25983;DHT22;13773;48.868;10.730;2023-08-17T15:06:16;23.50;99.90
25983;DHT22;13773;48.868;10.730;2023-08-17T15:08:42;23.00;99.90
25983;DHT22;13773;48.868;10.730;2023-08-17T15:11:08;22.70;99.90
25983;DHT22;13773;48.868;10.730;2023-08-17T15:13:33;22.50;99.90
25983;DHT22;13773;48.868;10.730;2023-08-17T15:15:59;22.10;99.90
25983;DHT22;13773;48.868;10.730;2023-08-17T15:18:25;19.60;99.90
25983;DHT22;13773;48.868;10.730;2023-08-17T15:20:51;21.70;99.90
25983;DHT22;13773;48.868;10.730;2023-08-17T15:23:16;21.60;99.90